createdAt,value
2023-04-15T00:00:13.622Z,26.43
2023-04-15T00:01:13.636Z,25.37
2023-04-15T00:02:13.684Z,26.01
2023-04-15T00:03:13.771Z,25.73
2023-04-15T00:04:13.717Z,25.00
2023-04-15T00:05:13.658Z,25.00
2023-04-15T00:06:13.679Z,22.04
2023-04-15T00:07:13.669Z,25.00
2023-04-15T00:08:13.664Z,35.98
2023-04-15T00:09:13.666Z,34.37
2023-04-15T00:10:13.684Z,25.08
2023-04-15T00:11:13.710Z,39.48
2023-04-15T00:12:13.720Z,53.71
2023-04-15T00:13:13.726Z,25.00
2023-04-15T00:14:13.702Z,15.11
2023-04-15T00:15:13.706Z,0.00
2023-04-15T00:16:13.718Z,26.59
2023-04-15T00:17:13.725Z,25.57
2023-04-15T00:18:13.722Z,25.00
2023-04-15T00:19:13.727Z,40.60
2023-04-15T00:20:13.728Z,51.56
2023-04-15T00:21:13.746Z,69.79
2023-04-15T00:22:13.808Z,90.16
2023-04-15T00:23:13.757Z,105.39
2023-04-15T00:24:13.762Z,119.99
2023-04-15T00:25:13.762Z,114.34
2023-04-15T00:26:13.764Z,99.62
2023-04-15T00:27:13.851Z,101.55
2023-04-15T00:28:13.770Z,110.23
2023-04-15T00:29:13.785Z,100.93
2023-04-15T00:30:13.838Z,105.77
2023-04-15T00:31:13.911Z,122.53
2023-04-15T00:32:13.989Z,137.25
2023-04-15T00:33:14.015Z,136.09
2023-04-15T00:34:14.080Z,137.92
2023-04-15T00:35:14.111Z,124.55
2023-04-15T00:36:14.178Z,121.08
2023-04-15T00:37:14.263Z,104.87
2023-04-15T00:38:14.299Z,89.50
2023-04-15T00:39:14.338Z,84.62
2023-04-15T00:40:14.358Z,84.97
2023-04-15T00:41:14.376Z,73.21
2023-04-15T00:42:14.417Z,77.79
2023-04-15T00:43:14.519Z,101.36
2023-04-15T00:44:14.523Z,134.05
2023-04-15T00:45:14.484Z,159.88
2023-04-15T00:46:14.553Z,179.48
2023-04-15T00:47:14.508Z,187.68
2023-04-15T00:48:14.533Z,187.41
2023-04-15T00:49:14.548Z,134.65
2023-04-15T00:50:14.555Z,99.57
2023-04-15T00:51:14.596Z,61.54
2023-04-15T00:52:14.607Z,58.26
2023-04-15T00:53:14.637Z,37.65
2023-04-15T00:54:14.654Z,25.00
2023-04-15T00:55:14.687Z,8.00
2023-04-15T00:56:14.714Z,0.00
2023-04-15T00:57:14.729Z,0.00
2023-04-15T00:58:14.742Z,0.00
2023-04-15T00:59:14.788Z,0.00
2023-04-15T01:00:14.782Z,13.01
2023-04-15T01:01:14.867Z,24.96
2023-04-15T01:02:14.970Z,25.89
2023-04-15T01:03:14.932Z,39.92
2023-04-15T01:04:14.920Z,33.65
2023-04-15T01:05:14.904Z,19.39
2023-04-15T01:06:14.933Z,20.05
2023-04-15T01:07:14.970Z,26.49
2023-04-15T01:08:15.013Z,25.00
2023-04-15T01:09:15.043Z,25.00
2023-04-15T01:10:15.045Z,25.24
2023-04-15T01:11:15.057Z,23.46
2023-04-15T01:12:15.072Z,25.00
2023-04-15T01:13:15.102Z,24.87
2023-04-15T01:14:15.121Z,26.29
2023-04-15T01:15:15.149Z,42.50
2023-04-15T01:16:15.176Z,57.99
2023-04-15T01:17:15.155Z,49.50
2023-04-15T01:18:15.170Z,58.77
2023-04-15T01:19:15.205Z,92.93
2023-04-15T01:20:15.212Z,72.35
2023-04-15T01:21:15.244Z,60.51
2023-04-15T01:22:15.276Z,82.77
2023-04-15T01:23:15.271Z,90.72
2023-04-15T01:24:15.284Z,96.58
2023-04-15T01:25:15.319Z,91.32
2023-04-15T01:26:15.314Z,106.69
2023-04-15T01:27:15.329Z,127.37
2023-04-15T01:28:15.348Z,153.38
2023-04-15T01:29:15.364Z,172.35
2023-04-15T01:30:15.384Z,183.38
2023-04-15T01:31:15.466Z,208.34
2023-04-15T01:32:15.410Z,225.70
2023-04-15T01:33:15.444Z,250.00
2023-04-15T01:34:15.468Z,250.00
2023-04-15T01:35:15.512Z,248.89
2023-04-15T01:36:15.533Z,249.85
2023-04-15T01:37:15.574Z,250.00
2023-04-15T01:38:15.621Z,249.86
2023-04-15T01:39:15.630Z,249.57
2023-04-15T01:40:15.659Z,250.00
2023-04-15T01:41:15.680Z,250.00
2023-04-15T01:42:15.715Z,247.88
2023-04-15T01:43:15.745Z,249.76
2023-04-15T01:44:15.788Z,245.39
2023-04-15T01:45:16.708Z,230.91
2023-04-15T01:46:15.903Z,229.32
2023-04-15T01:47:15.903Z,236.78
2023-04-15T01:48:15.931Z,235.03
2023-04-15T01:49:15.986Z,205.71
2023-04-15T01:50:16.075Z,200.04
2023-04-15T01:51:16.150Z,195.19
2023-04-15T01:52:16.229Z,199.53
2023-04-15T01:53:16.309Z,203.39
2023-04-15T01:54:16.361Z,214.16
2023-04-15T01:55:16.435Z,219.38
2023-04-15T01:56:16.958Z,223.29
2023-04-15T01:57:16.521Z,228.08
2023-04-15T01:58:16.571Z,213.00
2023-04-15T01:59:16.634Z,210.52
2023-04-15T02:00:16.694Z,218.24
2023-04-15T02:01:16.829Z,210.16
2023-04-15T02:02:16.820Z,216.51
2023-04-15T02:03:17.014Z,216.10
2023-04-15T02:04:16.950Z,210.81
2023-04-15T02:05:16.997Z,185.67
2023-04-15T02:06:17.072Z,184.72
2023-04-15T02:07:17.141Z,198.51
2023-04-15T02:08:17.203Z,197.98
2023-04-15T02:09:17.234Z,179.59
2023-04-15T02:10:17.272Z,182.38
2023-04-15T02:11:17.319Z,174.75
2023-04-15T02:12:17.364Z,174.87
2023-04-15T02:13:17.387Z,176.15
2023-04-15T02:14:17.434Z,173.39
2023-04-15T02:15:17.476Z,176.94
2023-04-15T02:16:17.619Z,188.83
2023-04-15T02:17:17.599Z,196.44
2023-04-15T02:18:17.628Z,195.69
2023-04-15T02:19:17.713Z,205.51
2023-04-15T02:20:17.721Z,212.52
2023-04-15T02:21:17.758Z,221.37
2023-04-15T02:22:17.794Z,213.74
2023-04-15T02:23:17.815Z,208.65
2023-04-15T02:24:17.905Z,218.75
2023-04-15T02:25:17.900Z,215.96
2023-04-15T02:26:17.925Z,206.90
2023-04-15T02:27:17.957Z,210.78
2023-04-15T02:28:17.989Z,220.52
2023-04-15T02:29:18.024Z,205.55
2023-04-15T02:30:18.077Z,196.29
2023-04-15T02:31:18.174Z,174.19
2023-04-15T02:32:18.265Z,168.28
2023-04-15T02:33:18.307Z,182.49
2023-04-15T02:34:18.391Z,199.08
2023-04-15T02:35:18.473Z,215.78
2023-04-15T02:36:18.537Z,235.63
2023-04-15T02:37:18.618Z,250.48
2023-04-15T02:38:18.699Z,250.40
2023-04-15T02:39:18.787Z,250.00
2023-04-15T02:40:18.922Z,249.70
2023-04-15T02:41:18.955Z,240.48
2023-04-15T02:42:19.019Z,240.90
2023-04-15T02:43:19.109Z,247.77
2023-04-15T02:44:19.174Z,247.50
2023-04-15T02:45:19.190Z,248.10
2023-04-15T02:46:19.310Z,248.86
2023-04-15T02:47:19.360Z,247.30
2023-04-15T02:48:19.464Z,246.68
2023-04-15T02:49:19.521Z,250.00
2023-04-15T02:50:19.604Z,249.87
2023-04-15T02:51:19.720Z,249.26
2023-04-15T02:52:20.720Z,247.33
2023-04-15T02:53:19.861Z,247.67
2023-04-15T02:54:19.881Z,243.99
2023-04-15T02:55:19.987Z,248.52
2023-04-15T02:56:20.057Z,244.06
2023-04-15T02:57:20.072Z,245.07
2023-04-15T02:58:20.728Z,249.93
2023-04-15T02:59:20.159Z,249.57
2023-04-15T03:00:20.195Z,249.41
2023-04-15T03:01:20.316Z,246.16
2023-04-15T03:02:20.354Z,247.85
2023-04-15T03:03:20.450Z,250.00
2023-04-15T03:04:20.445Z,249.71
2023-04-15T03:05:20.376Z,250.00
2023-04-15T03:06:20.394Z,250.13
2023-04-15T03:07:20.436Z,250.00
2023-04-15T03:08:20.438Z,247.39
2023-04-15T03:09:20.459Z,247.76
2023-04-15T03:10:20.496Z,248.75
2023-04-15T03:11:20.532Z,248.32
2023-04-15T03:12:20.590Z,238.85
2023-04-15T03:13:20.659Z,236.97
2023-04-15T03:14:20.723Z,232.54
2023-04-15T03:15:20.798Z,233.51
2023-04-15T03:16:20.918Z,234.15
2023-04-15T03:17:20.974Z,232.70
2023-04-15T03:18:21.024Z,233.84
2023-04-15T03:19:21.101Z,230.51
2023-04-15T03:20:21.269Z,234.88
2023-04-15T03:21:21.269Z,240.72
2023-04-15T03:22:21.356Z,240.56
2023-04-15T03:23:21.455Z,238.99
2023-04-15T03:24:21.504Z,234.92
2023-04-15T03:25:21.575Z,231.97
2023-04-15T03:26:21.633Z,227.47
2023-04-15T03:27:21.729Z,223.41
2023-04-15T03:28:21.789Z,221.79
2023-04-15T03:29:21.849Z,225.98
2023-04-15T03:30:21.923Z,227.75
2023-04-15T03:31:22.246Z,231.39
2023-04-15T03:32:22.078Z,231.65
2023-04-15T03:33:22.110Z,233.90
2023-04-15T03:34:22.186Z,242.30
2023-04-15T03:35:22.289Z,250.00
2023-04-15T03:36:22.306Z,250.00
2023-04-15T03:37:22.353Z,250.30
2023-04-15T03:38:22.405Z,250.00
2023-04-15T03:39:22.474Z,250.18
2023-04-15T03:40:22.536Z,250.00
2023-04-15T03:41:22.533Z,250.22
2023-04-15T03:42:22.560Z,250.00
2023-04-15T03:43:22.597Z,250.00
2023-04-15T03:44:22.600Z,250.00
2023-04-15T03:45:22.638Z,249.97
2023-04-15T03:46:22.689Z,248.12
2023-04-15T03:47:22.721Z,249.19
2023-04-15T03:48:22.834Z,248.98
2023-04-15T03:49:22.759Z,246.56
2023-04-15T03:50:22.815Z,246.62
2023-04-15T03:51:22.857Z,241.62
2023-04-15T03:52:22.931Z,239.33
2023-04-15T03:53:22.966Z,239.26
2023-04-15T03:54:22.994Z,239.28
2023-04-15T03:55:23.045Z,243.08
2023-04-15T03:56:23.044Z,244.80
2023-04-15T03:57:23.092Z,248.16
2023-04-15T03:58:23.141Z,250.01
2023-04-15T03:59:23.173Z,250.00
2023-04-15T04:00:23.228Z,248.96
2023-04-15T04:01:23.273Z,247.62
2023-04-15T04:02:23.625Z,248.11
2023-04-15T04:03:23.493Z,246.53
2023-04-15T04:04:23.613Z,245.74
2023-04-15T04:05:23.450Z,246.78
2023-04-15T04:06:23.487Z,248.77
2023-04-15T04:07:23.504Z,250.00
2023-04-15T04:08:23.518Z,249.39
2023-04-15T04:09:23.539Z,246.56
2023-04-15T04:10:23.571Z,245.16
2023-04-15T04:11:23.639Z,243.06
2023-04-15T04:12:23.614Z,238.73
2023-04-15T04:13:23.665Z,235.87
2023-04-15T04:14:23.704Z,229.31
2023-04-15T04:15:23.772Z,224.07
2023-04-15T04:16:23.859Z,221.31
2023-04-15T04:17:23.868Z,221.45
2023-04-15T04:18:23.864Z,219.09
2023-04-15T04:19:23.903Z,219.30
2023-04-15T04:20:23.939Z,219.79
2023-04-15T04:21:23.982Z,221.28
2023-04-15T04:22:24.013Z,223.30
2023-04-15T04:23:24.054Z,222.87
2023-04-15T04:24:24.093Z,224.79
2023-04-15T04:25:24.154Z,227.32
2023-04-15T04:26:24.190Z,226.47
2023-04-15T04:27:24.264Z,226.19
2023-04-15T04:28:24.293Z,224.42
2023-04-15T04:29:24.340Z,220.80
2023-04-15T04:30:24.399Z,218.28
2023-04-15T04:31:24.496Z,219.37
2023-04-15T04:32:24.563Z,223.46
2023-04-15T04:33:24.573Z,223.57
2023-04-15T04:34:24.631Z,227.26
2023-04-15T04:35:24.686Z,232.59
2023-04-15T04:36:24.732Z,239.37
2023-04-15T04:37:24.771Z,245.32
2023-04-15T04:38:24.806Z,243.09
2023-04-15T04:39:24.866Z,241.72
2023-04-15T04:40:24.931Z,233.16
2023-04-15T04:41:24.958Z,226.27
2023-04-15T04:42:25.015Z,215.42
2023-04-15T04:43:25.108Z,213.70
2023-04-15T04:44:25.148Z,214.08
2023-04-15T04:45:25.230Z,209.62
2023-04-15T04:46:25.280Z,208.71
2023-04-15T04:47:25.369Z,207.70
2023-04-15T04:48:25.406Z,202.44
2023-04-15T04:49:25.462Z,198.02
2023-04-15T04:50:25.549Z,197.14
2023-04-15T04:51:25.624Z,198.62
2023-04-15T04:52:25.716Z,203.07
2023-04-15T04:53:25.783Z,207.28
2023-04-15T04:54:25.855Z,215.22
2023-04-15T04:55:25.953Z,227.78
2023-04-15T04:56:26.025Z,235.88
2023-04-15T04:57:26.105Z,238.95
2023-04-15T04:58:26.155Z,236.39
2023-04-15T04:59:26.253Z,233.46
2023-04-15T05:00:26.303Z,226.44
2023-04-15T05:01:26.358Z,220.81
2023-04-15T05:02:26.557Z,218.27
2023-04-15T05:03:26.616Z,210.57
2023-04-15T05:04:26.569Z,205.98
2023-04-15T05:05:26.651Z,207.94
2023-04-15T05:06:26.714Z,207.20
2023-04-15T05:07:26.792Z,205.87
2023-04-15T05:08:26.829Z,210.95
2023-04-15T05:09:26.886Z,214.70
2023-04-15T05:10:26.937Z,216.18
2023-04-15T05:11:26.992Z,217.90
2023-04-15T05:12:27.040Z,220.08
2023-04-15T05:13:27.074Z,224.98
2023-04-15T05:14:27.108Z,225.20
2023-04-15T05:15:27.146Z,228.71
2023-04-15T05:16:27.141Z,233.31
2023-04-15T05:17:27.242Z,234.36
2023-04-15T05:18:27.231Z,233.61
2023-04-15T05:19:27.283Z,229.45
2023-04-15T05:20:27.329Z,229.15
2023-04-15T05:21:27.362Z,231.16
2023-04-15T05:22:27.396Z,236.16
2023-04-15T05:23:27.424Z,236.31
2023-04-15T05:24:27.472Z,240.56
2023-04-15T05:25:27.511Z,235.23
2023-04-15T05:26:27.593Z,233.85
2023-04-15T05:27:27.600Z,232.87
2023-04-15T05:28:27.648Z,231.04
2023-04-15T05:29:27.690Z,229.21
2023-04-15T05:30:27.731Z,227.56
2023-04-15T05:31:28.028Z,227.29
2023-04-15T05:32:27.891Z,227.69
2023-04-15T05:33:27.901Z,225.39
2023-04-15T05:34:27.950Z,223.21
2023-04-15T05:35:27.983Z,223.34
2023-04-15T05:36:28.004Z,224.22
2023-04-15T05:37:28.032Z,226.81
2023-04-15T05:38:28.051Z,226.47
2023-04-15T05:39:28.069Z,217.23
2023-04-15T05:40:28.111Z,212.92
2023-04-15T05:41:28.111Z,213.03
2023-04-15T05:42:28.122Z,206.19
2023-04-15T05:43:28.138Z,199.39
2023-04-15T05:44:28.167Z,196.91
2023-04-15T05:45:28.190Z,201.59
2023-04-15T05:46:28.260Z,209.62
2023-04-15T05:47:28.287Z,207.92
2023-04-15T05:48:29.263Z,212.71
2023-04-15T05:49:28.299Z,218.78
2023-04-15T05:50:28.321Z,211.10
2023-04-15T05:51:28.328Z,207.56
2023-04-15T05:52:28.344Z,207.93
2023-04-15T05:53:28.379Z,204.94
2023-04-15T05:54:28.369Z,205.12
2023-04-15T05:55:28.383Z,205.35
2023-04-15T05:56:28.398Z,206.72
2023-04-15T05:57:28.415Z,208.62
2023-04-15T05:58:28.429Z,209.41
2023-04-15T05:59:28.473Z,211.87
2023-04-15T06:00:28.514Z,214.65
2023-04-15T06:01:28.674Z,210.75
2023-04-15T06:02:28.627Z,208.68
2023-04-15T06:03:28.704Z,205.92
2023-04-15T06:04:28.833Z,194.50
2023-04-15T06:05:28.658Z,174.53
2023-04-15T06:06:28.675Z,163.21
2023-04-15T06:07:28.711Z,159.03
2023-04-15T06:08:28.769Z,149.14
2023-04-15T06:09:28.853Z,129.10
2023-04-15T06:10:29.014Z,117.26
2023-04-15T06:11:28.953Z,115.40
2023-04-15T06:12:29.009Z,94.81
2023-04-15T06:13:29.070Z,87.37
2023-04-15T06:14:29.120Z,73.99
2023-04-15T06:15:29.171Z,58.06
2023-04-15T06:16:29.227Z,60.28
2023-04-15T06:17:29.347Z,66.03
2023-04-15T06:18:29.321Z,72.90
2023-04-15T06:19:29.983Z,52.09
2023-04-15T06:20:29.466Z,30.54
2023-04-15T06:21:29.519Z,25.13
2023-04-15T06:22:29.629Z,42.81
2023-04-15T06:23:29.616Z,43.96
2023-04-15T06:24:29.656Z,15.54
2023-04-15T06:25:29.696Z,26.68
2023-04-15T06:26:29.722Z,17.24
2023-04-15T06:27:29.764Z,31.14
2023-04-15T06:28:29.787Z,37.20
2023-04-15T06:29:29.804Z,44.34
2023-04-15T06:30:29.840Z,48.40
2023-04-15T06:31:29.926Z,64.50
2023-04-15T06:32:29.970Z,80.05
2023-04-15T06:33:29.972Z,95.70
2023-04-15T06:34:29.994Z,105.00
2023-04-15T06:35:30.061Z,117.43
2023-04-15T06:36:30.063Z,124.97
2023-04-15T06:37:30.061Z,124.64
2023-04-15T06:38:30.075Z,113.85
2023-04-15T06:39:30.086Z,79.83
2023-04-15T06:40:30.115Z,62.82
2023-04-15T06:41:30.135Z,47.95
2023-04-15T06:42:30.150Z,54.09
2023-04-15T06:43:30.162Z,42.41
2023-04-15T06:44:31.577Z,31.33
2023-04-15T06:45:30.198Z,20.91
2023-04-15T06:46:30.133Z,26.91
2023-04-15T06:47:30.141Z,22.27
2023-04-15T06:48:30.110Z,7.33
2023-04-15T06:49:30.087Z,34.71
2023-04-15T06:50:30.080Z,1.23
2023-04-15T06:51:30.085Z,0.00
2023-04-15T06:52:30.050Z,0.00
2023-04-15T06:53:30.071Z,0.00
2023-04-15T06:54:30.027Z,0.00
2023-04-15T06:55:30.022Z,0.00
2023-04-15T06:56:30.020Z,0.00
2023-04-15T06:57:31.563Z,0.00
2023-04-15T06:58:29.980Z,0.00
2023-04-15T06:59:29.972Z,0.00
2023-04-15T07:00:30.003Z,0.00
2023-04-15T07:01:30.076Z,0.00
2023-04-15T07:02:30.261Z,0.00
2023-04-15T07:03:32.569Z,0.00
2023-04-15T07:04:29.998Z,0.00
2023-04-15T07:05:29.902Z,0.00
2023-04-15T07:06:29.890Z,3.28
2023-04-15T07:07:29.900Z,4.25
2023-04-15T07:08:29.858Z,0.00
2023-04-15T07:09:29.874Z,0.00
2023-04-15T07:10:29.830Z,0.00
2023-04-15T07:11:29.815Z,10.49
2023-04-15T07:12:29.820Z,15.96
2023-04-15T07:13:29.785Z,4.30
2023-04-15T07:14:29.773Z,4.05
2023-04-15T07:15:29.773Z,18.33
2023-04-15T07:16:30.013Z,20.69
2023-04-15T07:17:29.745Z,6.97
2023-04-15T07:18:29.706Z,0.00
2023-04-15T07:19:29.683Z,0.00
2023-04-15T07:20:29.705Z,0.00
2023-04-15T07:21:29.661Z,0.00
2023-04-15T07:22:29.646Z,0.00
2023-04-15T07:23:29.657Z,10.12
2023-04-15T07:24:29.618Z,4.65
2023-04-15T07:25:29.608Z,8.92
2023-04-15T07:26:29.581Z,15.08
2023-04-15T07:27:29.572Z,22.43
2023-04-15T07:28:29.543Z,25.60
2023-04-15T07:29:29.536Z,30.73
2023-04-15T07:30:29.522Z,34.65
2023-04-15T07:31:29.589Z,47.86
2023-04-15T07:32:29.526Z,33.93
2023-04-15T07:33:29.482Z,27.49
2023-04-15T07:34:31.447Z,26.13
2023-04-15T07:35:29.462Z,15.00
2023-04-15T07:36:29.443Z,19.31
2023-04-15T07:37:29.420Z,23.31
2023-04-15T07:38:29.415Z,16.85
2023-04-15T07:39:29.425Z,7.39
2023-04-15T07:40:29.402Z,0.00
2023-04-15T07:41:29.375Z,0.00
2023-04-15T07:42:29.387Z,0.00
2023-04-15T07:43:29.368Z,0.00
2023-04-15T07:44:29.355Z,0.00
2023-04-15T07:45:29.351Z,0.00
2023-04-15T07:46:29.381Z,0.00
2023-04-15T07:47:29.374Z,0.00
2023-04-15T07:48:29.346Z,12.64
2023-04-15T07:49:29.327Z,17.70
2023-04-15T07:50:29.318Z,27.74
2023-04-15T07:51:29.310Z,31.10
2023-04-15T07:52:29.301Z,36.21
2023-04-15T07:53:29.288Z,45.93
2023-04-15T07:54:29.292Z,57.10
2023-04-15T07:55:29.297Z,64.33
2023-04-15T07:56:29.269Z,53.09
2023-04-15T07:57:29.271Z,50.35
2023-04-15T07:58:29.266Z,38.98
2023-04-15T07:59:29.254Z,28.93
2023-04-15T08:00:29.223Z,25.27
2023-04-15T08:01:29.213Z,30.98
2023-04-15T08:02:29.349Z,29.14
2023-04-15T08:03:29.418Z,28.56
2023-04-15T08:04:29.277Z,25.99
2023-04-15T08:05:29.120Z,28.29
2023-04-15T08:06:29.116Z,35.18
2023-04-15T08:07:29.080Z,47.88
2023-04-15T08:08:29.063Z,57.69
2023-04-15T08:09:29.025Z,64.66
2023-04-15T08:10:29.000Z,70.83
2023-04-15T08:11:29.008Z,84.00
2023-04-15T08:12:28.979Z,83.12
2023-04-15T08:13:28.920Z,62.02
2023-04-15T08:14:28.916Z,40.39
2023-04-15T08:15:28.925Z,33.68
2023-04-15T08:16:28.959Z,26.89
2023-04-15T08:17:28.971Z,31.25
2023-04-15T08:18:28.905Z,28.37
2023-04-15T08:19:28.891Z,24.54
2023-04-15T08:20:28.917Z,25.00
2023-04-15T08:21:28.965Z,23.72
2023-04-15T08:22:29.058Z,17.26
2023-04-15T08:23:29.045Z,20.55
2023-04-15T08:24:29.049Z,25.00
2023-04-15T08:25:29.066Z,26.87
2023-04-15T08:26:29.059Z,25.04
2023-04-15T08:27:29.066Z,24.54
2023-04-15T08:28:29.030Z,25.58
2023-04-15T08:29:29.022Z,22.57
2023-04-15T08:30:29.020Z,21.19
2023-04-15T08:31:29.045Z,28.00
2023-04-15T08:32:29.091Z,25.60
2023-04-15T08:33:28.966Z,28.19
2023-04-15T08:34:28.942Z,28.14
2023-04-15T08:35:28.915Z,31.64
2023-04-15T08:36:28.883Z,34.35
2023-04-15T08:37:28.870Z,36.14
2023-04-15T08:38:28.873Z,39.00
2023-04-15T08:39:28.846Z,44.81
2023-04-15T08:40:28.839Z,44.31
2023-04-15T08:41:28.832Z,45.19
2023-04-15T08:42:28.816Z,55.29
2023-04-15T08:43:28.849Z,68.34
2023-04-15T08:44:28.841Z,71.80
2023-04-15T08:45:28.865Z,77.67
2023-04-15T08:46:28.894Z,79.79
2023-04-15T08:47:28.934Z,70.15
2023-04-15T08:48:28.957Z,76.29
2023-04-15T08:49:28.975Z,78.35
2023-04-15T08:50:29.005Z,69.25
2023-04-15T08:51:29.006Z,76.40
2023-04-15T08:52:29.005Z,66.02
2023-04-15T08:53:29.015Z,58.85
2023-04-15T08:54:28.977Z,66.86
2023-04-15T08:55:28.970Z,61.78
2023-04-15T08:56:29.018Z,58.62
2023-04-15T08:57:29.016Z,57.28
2023-04-15T08:58:29.026Z,63.93
2023-04-15T08:59:29.041Z,57.60
2023-04-15T09:00:29.038Z,50.17
2023-04-15T09:01:29.079Z,55.31
2023-04-15T09:02:29.121Z,58.69
2023-04-15T09:03:29.142Z,59.00
2023-04-15T09:04:29.116Z,54.85
2023-04-15T09:05:29.087Z,56.20
2023-04-15T09:06:29.088Z,54.71
2023-04-15T09:07:29.100Z,51.89
2023-04-15T09:08:29.125Z,45.25
2023-04-15T09:09:29.165Z,41.18
2023-04-15T09:10:29.174Z,39.34
2023-04-15T09:11:29.230Z,49.17
2023-04-15T09:12:29.212Z,52.55
2023-04-15T09:13:29.253Z,58.65
2023-04-15T09:14:29.282Z,65.56
2023-04-15T09:15:29.323Z,63.99
2023-04-15T09:16:29.333Z,55.78
2023-04-15T09:17:29.320Z,47.42
2023-04-15T09:18:29.285Z,49.13
2023-04-15T09:19:29.261Z,55.21
2023-04-15T09:20:29.248Z,47.62
2023-04-15T09:21:29.232Z,48.02
2023-04-15T09:22:29.223Z,43.82
2023-04-15T09:23:29.194Z,43.00
2023-04-15T09:24:29.185Z,34.22
2023-04-15T09:25:29.162Z,36.53
2023-04-15T09:26:29.150Z,28.86
2023-04-15T09:27:29.130Z,23.09
2023-04-15T09:28:29.104Z,25.98
2023-04-15T09:29:29.079Z,37.64
2023-04-15T09:30:29.098Z,12.49
2023-04-15T09:31:29.031Z,0.00
2023-04-15T09:32:29.079Z,0.00
2023-04-15T09:33:28.942Z,3.58
2023-04-15T09:34:28.916Z,0.46
2023-04-15T09:35:28.885Z,0.00
2023-04-15T09:36:28.826Z,0.00
2023-04-15T09:37:32.496Z,2.34
2023-04-15T09:38:28.728Z,2.59
2023-04-15T09:39:28.681Z,3.28
2023-04-15T09:40:28.629Z,6.14
2023-04-15T09:41:28.636Z,1.09
2023-04-15T09:42:28.530Z,0.00
2023-04-15T09:43:28.492Z,5.62
2023-04-15T09:44:28.436Z,11.71
2023-04-15T09:45:29.510Z,10.58
2023-04-15T09:46:28.379Z,10.56
2023-04-15T09:47:28.353Z,21.43
2023-04-15T09:48:28.256Z,18.53
2023-04-15T09:49:28.244Z,16.48
2023-04-15T09:50:28.175Z,10.19
2023-04-15T09:51:28.132Z,0.00
2023-04-15T09:52:28.084Z,0.00
2023-04-15T09:53:29.346Z,0.00
2023-04-15T09:54:27.993Z,0.00
2023-04-15T09:55:27.962Z,0.00
2023-04-15T09:56:27.890Z,0.00
2023-04-15T09:57:27.843Z,0.00
2023-04-15T09:58:27.790Z,0.00
2023-04-15T09:59:27.741Z,0.00
2023-04-15T10:00:27.703Z,0.00
2023-04-15T10:01:27.664Z,0.00
2023-04-15T10:02:27.657Z,0.00
2023-04-15T10:03:27.756Z,0.00
2023-04-15T10:04:27.553Z,0.00
2023-04-15T10:05:28.012Z,0.00
2023-04-15T10:06:27.611Z,0.00
2023-04-15T10:07:27.583Z,0.00
2023-04-15T10:08:27.566Z,0.00
2023-04-15T10:09:27.537Z,0.00
2023-04-15T10:10:27.534Z,0.00
2023-04-15T10:11:28.657Z,0.00
2023-04-15T10:12:27.469Z,0.00
2023-04-15T10:13:27.424Z,0.00
2023-04-15T10:14:27.366Z,8.02
2023-04-15T10:15:27.328Z,3.00
2023-04-15T10:16:27.474Z,0.25
2023-04-15T10:17:27.686Z,0.00
2023-04-15T10:18:27.180Z,2.78
2023-04-15T10:19:27.148Z,0.00
2023-04-15T10:20:27.114Z,0.00
2023-04-15T10:21:27.058Z,0.00
2023-04-15T10:22:27.018Z,0.00
2023-04-15T10:23:26.977Z,0.00
2023-04-15T10:24:26.936Z,0.65
2023-04-15T10:25:26.899Z,13.92
2023-04-15T10:26:26.853Z,22.45
2023-04-15T10:27:26.840Z,16.42
2023-04-15T10:28:26.854Z,13.71
2023-04-15T10:29:26.889Z,16.02
2023-04-15T10:30:26.916Z,23.15
2023-04-15T10:31:26.971Z,29.87
2023-04-15T10:32:27.008Z,42.91
2023-04-15T10:33:27.006Z,52.55
2023-04-15T10:34:27.026Z,51.08
2023-04-15T10:35:27.090Z,52.76
2023-04-15T10:36:27.021Z,59.49
2023-04-15T10:37:27.033Z,49.37
2023-04-15T10:38:27.050Z,46.28
2023-04-15T10:39:27.126Z,36.52
2023-04-15T10:40:27.108Z,26.98
2023-04-15T10:41:27.123Z,27.12
2023-04-15T10:42:27.132Z,27.16
2023-04-15T10:43:27.079Z,32.72
2023-04-15T10:44:27.035Z,38.67
2023-04-15T10:45:27.009Z,31.63
2023-04-15T10:46:27.004Z,25.79
2023-04-15T10:47:26.970Z,25.18
2023-04-15T10:48:26.909Z,32.60
2023-04-15T10:49:26.927Z,35.19
2023-04-15T10:50:26.942Z,29.56
2023-04-15T10:51:26.960Z,28.52
2023-04-15T10:52:26.916Z,24.51
2023-04-15T10:53:26.900Z,23.55
2023-04-15T10:54:26.885Z,20.65
2023-04-15T10:55:26.900Z,22.97
2023-04-15T10:56:26.890Z,27.87
2023-04-15T10:57:26.853Z,33.78
2023-04-15T10:58:26.834Z,37.36
2023-04-15T10:59:26.848Z,23.19
2023-04-15T11:00:26.885Z,16.66
2023-04-15T11:01:26.896Z,24.51
2023-04-15T11:02:27.009Z,13.56
2023-04-15T11:03:27.042Z,7.87
2023-04-15T11:04:27.061Z,0.39
2023-04-15T11:05:26.997Z,5.18
2023-04-15T11:06:27.013Z,21.56
2023-04-15T11:07:27.060Z,37.55
2023-04-15T11:08:27.044Z,44.59
2023-04-15T11:09:27.079Z,43.03
2023-04-15T11:10:27.102Z,35.55
2023-04-15T11:11:27.122Z,30.84
2023-04-15T11:12:27.138Z,20.81
2023-04-15T11:13:27.172Z,20.61
2023-04-15T11:14:27.201Z,24.00
2023-04-15T11:15:27.257Z,25.82
2023-04-15T11:16:27.289Z,27.52
2023-04-15T11:17:27.379Z,27.70
2023-04-15T11:18:27.274Z,22.09
2023-04-15T11:19:27.254Z,19.86
2023-04-15T11:20:27.258Z,12.85
2023-04-15T11:21:27.254Z,13.60
2023-04-15T11:22:27.288Z,13.61
2023-04-15T11:23:27.352Z,19.60
2023-04-15T11:24:27.374Z,24.71
2023-04-15T11:25:27.379Z,59.45
2023-04-15T11:26:27.411Z,103.42
2023-04-15T11:27:27.422Z,129.95
2023-04-15T11:28:27.465Z,136.06
2023-04-15T11:29:27.525Z,142.17
2023-04-15T11:30:27.562Z,153.51
2023-04-15T11:31:27.675Z,159.11
2023-04-15T11:32:27.706Z,144.98
2023-04-15T11:33:27.762Z,137.86
2023-04-15T11:34:27.831Z,134.37
2023-04-15T11:35:27.901Z,136.99
2023-04-15T11:36:27.981Z,138.10
2023-04-15T11:37:27.972Z,128.63
2023-04-15T11:38:28.035Z,128.98
2023-04-15T11:39:28.111Z,132.26
2023-04-15T11:40:28.147Z,126.55
2023-04-15T11:41:28.203Z,122.34
2023-04-15T11:42:39.251Z,136.65
2023-04-15T11:43:28.260Z,136.94
2023-04-15T11:44:28.266Z,140.55
2023-04-15T11:45:28.325Z,150.33
2023-04-15T11:46:28.301Z,164.93
2023-04-15T11:47:28.325Z,186.66
2023-04-15T11:48:28.324Z,197.90
2023-04-15T11:49:28.327Z,197.75
2023-04-15T11:50:28.352Z,188.65
2023-04-15T11:51:28.365Z,186.03
2023-04-15T11:52:28.396Z,182.07
2023-04-15T11:53:28.412Z,179.57
2023-04-15T11:54:28.435Z,175.73
2023-04-15T11:55:28.860Z,174.07
2023-04-15T11:56:28.462Z,174.67
2023-04-15T11:57:28.486Z,176.95
2023-04-15T11:58:28.470Z,178.62
2023-04-15T11:59:39.029Z,175.52
2023-04-15T12:00:28.499Z,174.39
2023-04-15T12:01:28.517Z,171.03
2023-04-15T12:02:28.653Z,162.37
2023-04-15T12:03:28.766Z,158.80
2023-04-15T12:04:28.822Z,161.93
2023-04-15T12:05:28.654Z,168.42
2023-04-15T12:06:28.680Z,177.61
2023-04-15T12:07:28.720Z,187.04
2023-04-15T12:08:28.728Z,191.08
2023-04-15T12:09:29.976Z,189.53
2023-04-15T12:10:28.754Z,184.30
2023-04-15T12:11:28.785Z,190.94
2023-04-15T12:12:28.783Z,195.31
2023-04-15T12:13:28.799Z,203.26
2023-04-15T12:14:28.832Z,218.02
2023-04-15T12:15:28.996Z,218.18
2023-04-15T12:16:28.888Z,226.26
2023-04-15T12:17:28.911Z,227.60
2023-04-15T12:18:28.915Z,230.96
2023-04-15T12:19:28.926Z,229.61
2023-04-15T12:20:28.952Z,222.38
2023-04-15T12:21:28.982Z,215.97
2023-04-15T12:22:28.999Z,197.24
2023-04-15T12:23:29.027Z,174.52
2023-04-15T12:24:29.074Z,157.82
2023-04-15T12:25:29.056Z,144.75
2023-04-15T12:26:29.089Z,135.21
2023-04-15T12:27:29.879Z,135.68
2023-04-15T12:28:29.118Z,133.07
2023-04-15T12:29:29.271Z,131.69
2023-04-15T12:30:29.171Z,127.65
2023-04-15T12:31:29.227Z,129.02
2023-04-15T12:32:29.210Z,133.19
2023-04-15T12:33:29.219Z,147.34
2023-04-15T12:34:29.238Z,171.32
2023-04-15T12:35:29.243Z,185.09
2023-04-15T12:36:29.255Z,190.68
2023-04-15T12:37:29.258Z,192.45
2023-04-15T12:38:29.279Z,191.54
2023-04-15T12:39:30.672Z,192.31
2023-04-15T12:40:29.520Z,192.51
2023-04-15T12:41:29.598Z,194.55
2023-04-15T12:42:29.690Z,196.20
2023-04-15T12:43:29.791Z,197.08